Time;durP1;ratioP1;P1;durP2;ratioP2;P2;SDS_P1;SDS_P2;PMS_P1;PMS_P2;Temp;Humidity;BMP_temperature;BMP_pressure;BME280_temperature;BME280_humidity;BME280_pressure;Samples;Min_cycle;Max_cycle;Signal;HPM_P1;HPM_P2
2022/01/14 00:01:31;;;;;;;0.80;0.80;;;;;;;5.83;75.56;100905.08;103381;1277;97206;-68
2022/01/14 00:03:59;;;;;;;0.70;0.70;;;;;;;5.84;75.06;100895.92;103313;1277;95259;-65
2022/01/14 00:06:27;;;;;;;0.60;0.60;;;;;;;5.86;75.25;100897.16;103265;1277;138904;-66
2022/01/14 00:09:02;;;;;;;0.80;0.80;;;;;;;5.81;75.14;100899.96;103345;1278;109748;-63
2022/01/14 00:11:31;;;;;;;0.70;0.70;;;;;;;5.80;75.34;100898.04;107269;1277;138137;-68
2022/01/14 00:14:10;;;;;;;0.70;0.70;;;;;;;5.80;75.38;100901.55;107094;1277;93289;-65
2022/01/14 00:16:37;;;;;;;0.60;0.60;;;;;;;5.82;75.35;100899.79;103223;1277;139718;-65
2022/01/14 00:19:05;;;;;;;0.60;0.60;;;;;;;5.83;75.02;100898.56;103318;1277;110687;-67
2022/01/14 00:21:35;;;;;;;0.60;0.60;;;;;;;5.84;75.05;100893.10;103375;1277;95272;-67
2022/01/14 00:24:23;;;;;;;0.60;0.60;;;;;;;5.84;75.21;100889.93;103867;1277;138718;-68
2022/01/14 00:34:56;;;;;;;0.70;0.70;;;;;;;5.94;74.92;100865.09;103255;1277;140045;-66
2022/01/14 00:37:23;;;;;;;0.70;0.70;;;;;;;5.88;74.89;100859.44;103348;1277;108665;-65
2022/01/14 00:39:51;;;;;;;0.60;0.60;;;;;;;5.89;74.84;100856.27;103381;1278;108739;-67
2022/01/14 00:42:19;;;;;;;0.60;0.60;;;;;;;5.89;74.92;100854.86;103334;1277;138348;-67
2022/01/14 00:44:47;;;;;;;0.60;0.60;;;;;;;5.82;75.22;100852.91;103367;1278;95236;-65
2022/01/14 00:47:15;;;;;;;0.60;0.60;;;;;;;5.83;74.83;100849.56;103322;1277;138654;-65
2022/01/14 00:49:45;;;;;;;0.70;0.70;;;;;;;5.83;74.93;100844.29;103485;1277;109720;-64
2022/01/14 00:52:12;;;;;;;0.70;0.70;;;;;;;5.87;74.92;100838.83;103289;1278;139564;-67
2022/01/14 00:54:40;;;;;;;0.70;0.70;;;;;;;5.90;74.53;100837.24;103471;1278;96525;-68
2022/01/14 00:59:36;;;;;;;0.70;0.70;;;;;;;5.84;74.70;100838.83;103294;1278;138828;-65
2022/01/14 01:02:04;;;;;;;0.70;0.70;;;;;;;5.81;74.60;100833.19;103611;1278;95736;-65
2022/01/14 01:04:37;;;;;;;0.80;0.80;;;;;;;5.83;74.72;100834.94;103340;1277;138843;-66
2022/01/14 01:07:08;;;;;;;0.60;0.60;;;;;;;5.87;74.46;100835.64;103856;1278;108872;-67
2022/01/14 01:09:38;;;;;;;0.70;0.70;;;;;;;5.89;74.36;100834.07;103607;1278;110011;-67
2022/01/14 01:15:02;;;;;;;0.70;0.70;;;;;;;5.83;74.25;100832.13;103350;1278;95669;-67
2022/01/14 01:17:31;;;;;;;0.70;0.70;;;;;;;5.80;74.51;100823.50;103285;1280;138669;-67
2022/01/14 01:20:00;;;;;;;0.70;0.70;;;;;;;5.83;74.32;100819.80;103409;1278;110544;-66
2022/01/14 01:22:28;;;;;;;0.70;0.70;;;;;;;5.80;74.31;100811.52;103388;1278;138861;-68
2022/01/14 01:25:04;;;;;;;0.70;0.70;;;;;;;5.76;74.59;100803.58;103463;1278;95131;-65
2022/01/14 01:27:37;;;;;;;0.70;0.70;;;;;;;5.69;74.67;100796.36;103706;1277;109967;-68
2022/01/14 01:32:47;;;;;;;0.60;0.60;;;;;;;5.74;74.56;100781.73;103817;1278;95233;-69
2022/01/14 01:35:15;;;;;;;0.70;0.70;;;;;;;5.75;74.55;100780.33;103385;1278;138631;-69
2022/01/14 01:37:43;;;;;;;0.70;0.70;;;;;;;5.73;74.57;100779.98;103402;1278;108805;-66
2022/01/14 01:40:14;;;;;;;0.60;0.60;;;;;;;5.74;74.58;100779.98;103294;1279;138938;-66
2022/01/14 01:42:44;;;;;;;0.60;0.60;;;;;;;5.74;74.48;100779.80;103646;1278;95127;-67
2022/01/14 01:45:19;;;;;;;0.70;0.70;;;;;;;5.75;74.74;100775.39;103591;1277;95261;-68
2022/01/14 01:47:50;;;;;;;0.70;0.70;;;;;;;5.75;74.64;100778.39;103310;1278;138067;-68
2022/01/14 01:50:22;;;;;;;0.70;0.70;;;;;;;5.75;74.64;100785.27;103470;1278;109300;-66
2022/01/14 01:52:50;;;;;;;0.60;0.60;;;;;;;5.76;74.63;100782.97;103281;1280;139219;-67
2022/01/14 01:55:18;;;;;;;0.70;0.70;;;;;;;5.76;74.48;100776.98;103321;1278;96859;-69
2022/01/14 01:57:46;;;;;;;0.70;0.70;;;;;;;5.78;74.38;100779.27;103377;1280;108808;-67
2022/01/14 02:00:17;;;;;;;0.70;0.70;;;;;;;5.81;74.66;100781.55;103337;1278;139253;-66
2022/01/14 02:02:48;;;;;;;0.60;0.60;;;;;;;5.86;74.48;100778.02;103381;1279;95661;-65
2022/01/14 02:05:16;;;;;;;0.70;0.70;;;;;;;5.89;74.19;100767.45;104008;1279;138793;-65
2022/01/14 02:07:44;;;;;;;0.70;0.70;;;;;;;5.85;74.41;100767.46;103294;1278;108720;-67
2022/01/14 02:10:13;;;;;;;0.70;0.70;;;;;;;5.85;74.58;100760.94;103239;1277;139112;-67
2022/01/14 02:12:50;;;;;;;0.60;0.60;;;;;;;5.79;74.57;100756.36;103323;1278;95736;-67
2022/01/14 02:18:31;;;;;;;0.80;0.80;;;;;;;5.79;74.81;100737.15;103275;1278;138530;-67
2022/01/14 02:23:53;;;;;;;0.70;0.70;;;;;;;5.80;74.77;100722.36;103199;1278;138624;-69
2022/01/14 02:26:22;;;;;;;0.70;0.70;;;;;;;5.85;74.63;100719.00;103412;1278;96133;-68
2022/01/14 02:28:50;;;;;;;0.60;0.60;;;;;;;5.88;74.55;100712.64;103300;1277;138133;-67
2022/01/14 02:31:18;;;;;;;0.70;0.70;;;;;;;5.86;74.55;100708.61;103427;1278;109760;-67
2022/01/14 02:33:46;;;;;;;0.70;0.70;;;;;;;5.88;74.81;100709.30;103481;1279;95321;-66
2022/01/14 02:36:15;;;;;;;0.70;0.70;;;;;;;5.88;74.59;100704.02;103320;1277;141645;-68
2022/01/14 02:38:44;;;;;;;0.70;0.70;;;;;;;5.77;75.02;100695.92;103375;1280;109011;-67
2022/01/14 02:41:12;;;;;;;0.70;0.70;;;;;;;5.75;75.20;100685.19;103257;1278;139024;-67
2022/01/14 02:43:40;;;;;;;0.70;0.70;;;;;;;5.75;75.28;100679.02;103348;1277;95242;-67
2022/01/14 02:46:08;;;;;;;0.70;0.70;;;;;;;5.73;75.41;100676.73;103205;1277;138672;-67
2022/01/14 02:48:36;;;;;;;0.70;0.70;;;;;;;5.73;75.54;100670.38;103369;1280;108862;-67
2022/01/14 02:51:11;;;;;;;0.70;0.70;;;;;;;5.74;75.43;100663.88;103423;1280;109728;-67
2022/01/14 02:56:10;;;;;;;0.60;0.60;;;;;;;5.68;75.82;100657.19;103948;1278;95497;-66
2022/01/14 02:58:39;;;;;;;0.60;0.60;;;;;;;5.68;75.85;100639.75;103265;1278;139491;-67
2022/01/14 03:01:10;;;;;;;0.70;0.70;;;;;;;5.66;75.98;100640.80;103508;1279;110466;-68
2022/01/14 03:03:39;;;;;;;0.60;0.60;;;;;;;5.69;75.98;100633.23;104123;1278;95267;-65
2022/01/14 03:06:06;;;;;;;0.70;0.70;;;;;;;5.70;75.96;100639.74;103212;1278;138727;-64
2022/01/14 03:08:35;;;;;;;0.70;0.70;;;;;;;5.76;75.94;100639.37;103412;1277;108830;-66
2022/01/14 03:11:07;;;;;;;0.70;0.70;;;;;;;5.77;75.69;100634.79;103279;1278;139222;-68
2022/01/14 03:13:36;;;;;;;0.70;0.70;;;;;;;5.81;75.72;100638.83;103405;1278;95222;-68
2022/01/14 03:16:04;;;;;;;0.60;0.60;;;;;;;5.79;75.60;100630.55;103380;1277;138104;-69
2022/01/14 03:18:45;;;;;;;0.70;0.70;;;;;;;5.75;75.88;100628.27;103761;1278;108791;-68
2022/01/14 03:21:16;;;;;;;0.70;0.70;;;;;;;5.73;75.88;100629.69;103422;1278;109717;-68
2022/01/14 03:23:48;;;;;;;0.70;0.70;;;;;;;5.76;75.77;100628.09;103364;1279;138279;-67
2022/01/14 03:26:17;;;;;;;0.70;0.70;;;;;;;5.77;75.88;100626.17;103525;1277;96147;-67
2022/01/14 03:28:46;;;;;;;0.70;0.70;;;;;;;5.73;75.78;100618.44;103264;1277;139858;-67
2022/01/14 03:31:15;;;;;;;0.70;0.70;;;;;;;5.67;75.96;100624.08;103387;1280;108933;-67
2022/01/14 03:33:42;;;;;;;0.60;0.60;;;;;;;5.73;76.00;100640.45;103366;1280;95267;-68
2022/01/14 03:36:11;;;;;;;0.70;0.70;;;;;;;5.73;75.96;100641.67;103341;1278;138064;-68
2022/01/14 03:38:39;;;;;;;0.70;0.70;;;;;;;5.70;76.05;100655.60;103497;1278;108829;-68
2022/01/14 03:41:07;;;;;;;0.80;0.80;;;;;;;5.71;75.91;100657.36;103260;1277;138702;-68
2022/01/14 03:43:36;;;;;;;0.80;0.80;;;;;;;5.68;75.94;100656.83;103693;1278;95245;-66
2022/01/14 03:46:04;;;;;;;0.70;0.70;;;;;;;5.69;76.00;100647.33;103380;1277;138815;-64
2022/01/14 03:48:32;;;;;;;0.70;0.70;;;;;;;5.68;75.92;100658.42;103358;1277;108898;-66
2022/01/14 03:51:00;;;;;;;0.70;0.70;;;;;;;5.64;76.18;100664.95;104128;1278;110823;-66
2022/01/14 03:53:28;;;;;;;0.70;0.70;;;;;;;5.63;76.31;100666.00;103248;1280;139078;-69
2022/01/14 03:55:56;;;;;;;0.70;0.70;;;;;;;5.65;76.22;100657.55;103395;1278;95314;-67
2022/01/14 03:58:40;;;;;;;0.70;0.70;;;;;;;5.65;76.03;100652.09;103351;1278;138773;-65
2022/01/14 04:01:09;;;;;;;0.60;0.60;;;;;;;5.68;76.10;100655.60;103428;1278;110189;-66
2022/01/14 04:03:38;;;;;;;0.70;0.70;;;;;;;5.67;76.04;100658.77;103955;1280;95442;-67
2022/01/14 04:06:06;;;;;;;0.70;0.70;;;;;;;5.68;76.08;100660.53;103336;1278;138106;-67
2022/01/14 04:08:34;;;;;;;0.70;0.70;;;;;;;5.65;76.19;100664.42;103465;1278;108831;-66
2022/01/14 04:11:03;;;;;;;0.70;0.70;;;;;;;5.66;76.28;100662.84;103323;1277;138850;-68
2022/01/14 04:13:44;;;;;;;0.70;0.70;;;;;;;5.66;76.17;100660.02;103393;1280;95259;-68
2022/01/14 04:16:13;;;;;;;0.70;0.70;;;;;;;5.65;76.29;100656.33;103301;1277;139029;-66
2022/01/14 04:18:41;;;;;;;0.70;0.70;;;;;;;5.65;76.44;100650.15;103366;1280;108937;-67
2022/01/14 04:21:09;;;;;;;0.70;0.70;;;;;;;5.66;76.39;100653.15;103369;1277;109783;-68
2022/01/14 04:23:37;;;;;;;0.70;0.70;;;;;;;5.63;76.46;100652.45;103267;1278;139495;-68
2022/01/14 04:26:04;;;;;;;0.70;0.70;;;;;;;5.63;76.56;100650.68;103438;1277;95233;-68
2022/01/14 04:28:35;;;;;;;0.60;0.60;;;;;;;5.66;76.66;100641.87;103226;1280;138838;-68
2022/01/14 04:31:04;;;;;;;0.70;0.70;;;;;;;5.72;76.52;100633.04;103354;1278;110649;-66
2022/01/14 04:33:34;;;;;;;0.70;0.70;;;;;;;5.76;76.36;100632.69;103728;1278;95273;-68
2022/01/14 04:36:03;;;;;;;0.70;0.70;;;;;;;5.78;76.07;100621.92;103339;1278;138712;-67
2022/01/14 04:38:32;;;;;;;0.80;0.80;;;;;;;5.78;76.08;100617.88;103884;1277;108789;-66
2022/01/14 04:41:01;;;;;;;0.70;0.70;;;;;;;5.78;76.22;100611.70;103549;1277;139398;-68
2022/01/14 04:43:29;;;;;;;0.60;0.60;;;;;;;5.78;76.20;100605.02;103712;1277;95327;-66
2022/01/14 04:48:30;;;;;;;0.60;0.60;;;;;;;5.83;76.24;100588.25;103246;1280;138752;-68
2022/01/14 04:50:59;;;;;;;0.70;0.70;;;;;;;5.83;76.03;100580.15;103366;1280;109730;-68
2022/01/14 04:53:28;;;;;;;0.60;0.60;;;;;;;5.84;76.10;100571.69;104006;1277;139376;-67
2022/01/14 04:55:56;;;;;;;0.60;0.60;;;;;;;5.83;76.02;100560.42;103845;1278;95448;-67
2022/01/14 04:58:26;;;;;;;0.70;0.70;;;;;;;5.83;76.15;100557.77;103671;1278;138310;-68
2022/01/14 05:00:55;;;;;;;0.70;0.70;;;;;;;5.82;76.14;100558.84;103473;1279;109749;-68
2022/01/14 05:03:23;;;;;;;0.70;0.70;;;;;;;5.78;76.30;100562.20;103468;1279;95274;-67
2022/01/14 05:05:55;;;;;;;0.70;0.70;;;;;;;5.78;76.45;100564.14;103552;1278;138900;-68
2022/01/14 05:08:38;;;;;;;0.60;0.60;;;;;;;5.81;76.29;100568.52;103461;1278;108649;-69
2022/01/14 05:13:46;;;;;;;0.60;0.60;;;;;;;5.88;76.10;100572.37;103427;1278;95820;-66
2022/01/14 05:16:14;;;;;;;0.70;0.70;;;;;;;5.87;76.09;100562.16;103397;1278;139328;-67
2022/01/14 05:18:42;;;;;;;0.70;0.70;;;;;;;5.87;76.11;100553.17;103374;1280;107783;-67
2022/01/14 05:21:10;;;;;;;0.70;0.70;;;;;;;5.89;76.34;100542.95;103409;1277;109748;-65
2022/01/14 05:23:38;;;;;;;0.70;0.70;;;;;;;5.88;76.22;100539.77;103237;1280;138555;-65
2022/01/14 05:26:06;;;;;;;0.70;0.70;;;;;;;5.91;76.28;100532.36;103336;1278;95253;-65
2022/01/14 05:28:33;;;;;;;0.70;0.70;;;;;;;5.90;76.12;100524.10;103179;1280;139133;-67
2022/01/14 05:31:01;;;;;;;0.80;0.80;;;;;;;5.89;76.43;100517.05;103251;1280;109729;-69
2022/01/14 05:33:31;;;;;;;0.70;0.70;;;;;;;5.90;76.34;100520.22;103251;1279;95279;-63
2022/01/14 05:35:59;;;;;;;0.70;0.70;;;;;;;5.97;76.04;100518.60;103549;1279;140350;-63
2022/01/14 05:38:27;;;;;;;0.60;0.60;;;;;;;6.01;76.00;100507.84;103334;1277;109649;-66
2022/01/14 05:40:55;;;;;;;0.60;0.60;;;;;;;5.97;75.84;100510.31;103238;1278;139030;-63
2022/01/14 05:43:22;;;;;;;0.70;0.70;;;;;;;5.95;76.00;100509.96;103337;1280;95581;-64
2022/01/14 05:45:50;;;;;;;0.80;0.80;;;;;;;5.97;75.74;100498.50;103307;1278;95723;-63
2022/01/14 05:48:18;;;;;;;0.70;0.70;;;;;;;6.02;75.72;100504.14;103240;1278;138910;-62
2022/01/14 05:50:46;;;;;;;0.70;0.70;;;;;;;6.03;75.61;100506.42;103388;1278;111038;-64
2022/01/14 05:53:13;;;;;;;0.70;0.70;;;;;;;5.99;75.53;100504.50;103171;1278;138943;-63
2022/01/14 05:55:41;;;;;;;0.70;0.70;;;;;;;5.96;75.50;100502.92;103406;1278;95709;-63
2022/01/14 05:58:09;;;;;;;0.80;0.80;;;;;;;5.96;75.64;100488.80;103149;1278;139766;-63
2022/01/14 06:00:37;;;;;;;0.70;0.70;;;;;;;5.96;75.47;100488.27;103247;1278;109533;-63
2022/01/14 06:03:04;;;;;;;0.70;0.70;;;;;;;5.97;75.43;100483.87;103384;1278;96163;-65
2022/01/14 06:05:34;;;;;;;0.70;0.70;;;;;;;5.96;75.46;100476.48;103424;1277;138802;-66
2022/01/14 06:08:01;;;;;;;0.70;0.70;;;;;;;5.94;75.45;100479.84;103364;1278;108799;-64
2022/01/14 06:10:29;;;;;;;0.70;0.70;;;;;;;5.97;75.30;100486.87;103196;1278;138794;-64
2022/01/14 06:12:57;;;;;;;0.70;0.70;;;;;;;5.92;75.47;100478.61;103241;1278;96702;-64
2022/01/14 06:15:25;;;;;;;0.60;0.60;;;;;;;5.89;75.78;100477.58;103110;1278;96998;-65
2022/01/14 06:17:52;;;;;;;0.70;0.70;;;;;;;5.92;75.51;100474.73;103187;1278;138352;-62
2022/01/14 06:20:20;;;;;;;0.60;0.60;;;;;;;5.91;75.64;100474.92;103170;1278;109380;-62
2022/01/14 06:22:48;;;;;;;0.70;0.70;;;;;;;5.92;75.70;100476.14;103221;1278;141830;-67
2022/01/14 06:25:16;;;;;;;0.80;0.80;;;;;;;5.94;75.35;100479.66;103117;1278;95612;-66
2022/01/14 06:27:44;;;;;;;0.70;0.70;;;;;;;5.94;75.53;100472.25;103193;1278;108516;-67
2022/01/14 06:30:12;;;;;;;0.70;0.70;;;;;;;5.99;75.49;100465.55;103199;1278;138507;-68
2022/01/14 06:32:43;;;;;;;0.80;0.80;;;;;;;6.00;75.34;100450.22;107122;1277;95037;-67
2022/01/14 06:35:12;;;;;;;0.70;0.70;;;;;;;6.00;75.44;100443.70;103198;1278;138032;-64
2022/01/14 06:37:41;;;;;;;0.70;0.70;;;;;;;6.01;75.76;100447.73;104820;1277;109180;-65
2022/01/14 06:40:10;;;;;;;0.60;0.60;;;;;;;6.00;75.55;100453.05;103200;1277;139568;-66
2022/01/14 06:42:45;;;;;;;0.70;0.70;;;;;;;5.98;75.91;100453.56;103301;1278;95256;-64
2022/01/14 06:45:12;;;;;;;0.80;0.80;;;;;;;5.95;75.98;100453.58;103326;1278;95172;-66
2022/01/14 06:47:40;;;;;;;0.70;0.70;;;;;;;5.92;76.34;100452.17;103233;1278;138728;-65
2022/01/14 06:50:09;;;;;;;0.70;0.70;;;;;;;5.89;76.62;100464.54;103334;1277;109979;-64
2022/01/14 06:52:36;;;;;;;0.70;0.70;;;;;;;5.88;76.73;100463.84;103321;1278;139746;-66
2022/01/14 06:55:05;;;;;;;0.70;0.70;;;;;;;5.92;76.61;100462.23;103410;1277;95257;-64
2022/01/14 06:57:33;;;;;;;0.70;0.70;;;;;;;5.96;76.60;100451.11;103670;1278;109061;-65
2022/01/14 07:00:04;;;;;;;0.80;0.80;;;;;;;5.99;76.58;100438.05;103293;1278;138917;-65
2022/01/14 07:02:32;;;;;;;0.70;0.70;;;;;;;6.09;76.28;100438.52;103765;1278;95761;-66
2022/01/14 07:05:03;;;;;;;0.70;0.70;;;;;;;6.01;76.44;100431.53;103564;1277;138828;-63
2022/01/14 07:07:31;;;;;;;0.70;0.70;;;;;;;6.00;76.58;100435.23;103421;1278;108850;-64
2022/01/14 07:09:59;;;;;;;0.70;0.70;;;;;;;5.99;76.73;100436.13;103593;1278;109690;-64
2022/01/14 07:12:32;;;;;;;0.70;0.70;;;;;;;6.00;76.84;100440.17;103344;1278;138819;-66
2022/01/14 07:15:01;;;;;;;0.60;0.60;;;;;;;6.03;76.68;100444.91;103956;1277;95952;-65
2022/01/14 07:17:28;;;;;;;0.60;0.60;;;;;;;6.06;76.68;100440.84;103281;1278;139301;-64
2022/01/14 07:20:00;;;;;;;0.70;0.70;;;;;;;6.06;76.44;100434.49;103437;1278;112476;-66
2022/01/14 07:22:28;;;;;;;0.70;0.70;;;;;;;6.04;76.50;100429.58;103318;1278;140213;-65
2022/01/14 07:24:56;;;;;;;0.70;0.70;;;;;;;6.03;76.68;100417.07;103365;1278;95239;-65
2022/01/14 07:27:24;;;;;;;0.60;0.60;;;;;;;6.05;76.68;100419.52;103028;1278;109643;-64
2022/01/14 07:29:51;;;;;;;0.60;0.60;;;;;;;6.09;76.50;100419.14;103230;1277;138968;-65
2022/01/14 07:32:19;;;;;;;0.80;0.80;;;;;;;6.11;76.54;100418.60;103368;1278;95167;-65
2022/01/14 07:34:48;;;;;;;0.70;0.70;;;;;;;6.08;76.68;100411.05;103334;1277;139274;-66
2022/01/14 07:37:16;;;;;;;0.70;0.70;;;;;;;6.06;76.63;100407.52;103385;1278;108931;-65
2022/01/14 07:39:44;;;;;;;0.70;0.70;;;;;;;6.08;76.65;100408.73;103531;1278;110271;-64
2022/01/14 07:42:12;;;;;;;0.60;0.60;;;;;;;6.12;76.66;100406.42;103560;1278;142261;-65
2022/01/14 07:44:40;;;;;;;0.70;0.70;;;;;;;6.12;76.73;100407.31;103420;1278;95717;-64
2022/01/14 07:47:08;;;;;;;0.70;0.70;;;;;;;6.14;76.73;100409.40;103238;1278;138610;-65
2022/01/14 07:49:36;;;;;;;0.70;0.70;;;;;;;6.11;76.48;100409.77;103924;1278;109748;-63
2022/01/14 07:52:04;;;;;;;0.70;0.70;;;;;;;6.10;76.69;100419.66;103182;1278;138964;-65
2022/01/14 07:54:32;;;;;;;0.70;0.70;;;;;;;6.07;77.13;100417.91;102923;1277;95620;-64
2022/01/14 07:57:01;;;;;;;0.60;0.60;;;;;;;6.06;77.02;100418.99;103080;1277;108718;-64
2022/01/14 07:59:33;;;;;;;0.70;0.70;;;;;;;6.08;76.90;100414.91;103040;1277;138991;-64
2022/01/14 08:02:01;;;;;;;0.60;0.60;;;;;;;6.10;77.03;100413.84;103163;1278;95228;-64
2022/01/14 08:04:33;;;;;;;0.60;0.60;;;;;;;6.15;76.88;100415.73;103233;1277;138741;-64
2022/01/14 08:07:11;;;;;;;0.60;0.60;;;;;;;6.17;76.85;100409.20;103612;1278;108802;-64
2022/01/14 08:09:41;;;;;;;0.60;0.60;;;;;;;6.22;77.14;100401.40;103861;1277;109654;-64
2022/01/14 08:12:10;;;;;;;0.60;0.60;;;;;;;6.20;76.92;100385.20;103246;1278;139054;-64
2022/01/14 08:14:39;;;;;;;0.60;0.60;;;;;;;6.19;76.82;100384.16;103405;1277;95735;-64
2022/01/14 08:17:07;;;;;;;0.60;0.60;;;;;;;6.20;77.13;100391.54;103702;1278;138647;-65
2022/01/14 08:19:36;;;;;;;0.70;0.70;;;;;;;6.23;77.00;100383.77;103344;1277;108917;-63
2022/01/14 08:22:06;;;;;;;0.60;0.60;;;;;;;6.24;77.13;100377.77;103609;1278;139037;-66
2022/01/14 08:24:35;;;;;;;0.60;0.60;;;;;;;6.26;77.06;100369.63;103449;1277;96523;-64
2022/01/14 08:27:05;;;;;;;0.60;0.60;;;;;;;6.28;76.94;100364.69;103275;1278;108946;-63
2022/01/14 08:29:34;;;;;;;0.60;0.60;;;;;;;6.26;76.97;100368.05;103454;1278;138914;-65
2022/01/14 08:32:01;;;;;;;0.60;0.60;;;;;;;6.26;77.10;100362.05;103163;1277;247433;-63
2022/01/14 08:34:29;;;;;;;0.60;0.60;;;;;;;6.29;77.03;100365.39;103190;1278;139027;-65
2022/01/14 08:36:57;;;;;;;0.70;0.70;;;;;;;6.33;76.71;100364.27;103308;1281;108601;-65
2022/01/14 08:39:25;;;;;;;0.60;0.60;;;;;;;6.35;76.96;100356.66;103429;1277;109332;-66
2022/01/14 08:41:55;;;;;;;0.60;0.60;;;;;;;6.38;76.85;100358.41;103306;1277;138477;-66
2022/01/14 08:44:23;;;;;;;0.70;0.70;;;;;;;6.38;76.68;100365.64;103843;1281;95284;-64
2022/01/14 08:46:52;;;;;;;0.60;0.60;;;;;;;6.41;76.80;100364.39;103166;1278;138648;-63
2022/01/14 08:49:20;;;;;;;0.60;0.60;;;;;;;6.39;76.76;100352.41;103332;1277;109736;-64
2022/01/14 08:51:49;;;;;;;0.60;0.60;;;;;;;6.35;76.80;100352.45;103274;1277;95333;-64
2022/01/14 08:54:18;;;;;;;0.60;0.60;;;;;;;6.38;77.09;100355.06;103149;1277;139191;-65
2022/01/14 08:56:45;;;;;;;0.60;0.60;;;;;;;6.39;76.99;100351.35;103387;1277;108868;-65
2022/01/14 08:59:17;;;;;;;0.60;0.60;;;;;;;6.41;77.00;100353.09;103184;1278;139233;-69
2022/01/14 09:01:45;;;;;;;0.70;0.70;;;;;;;6.42;77.03;100350.09;103559;1277;96738;-64
2022/01/14 09:04:14;;;;;;;0.60;0.60;;;;;;;6.43;76.94;100360.13;104378;1277;140113;-63
2022/01/14 09:06:42;;;;;;;0.60;0.60;;;;;;;6.44;76.91;100357.30;103850;1277;108820;-65
2022/01/14 09:09:10;;;;;;;0.60;0.60;;;;;;;6.47;76.90;100344.39;103356;1278;109757;-65
2022/01/14 09:11:37;;;;;;;0.50;0.50;;;;;;;6.51;76.76;100345.94;103313;1277;138564;-65
2022/01/14 09:14:05;;;;;;;0.60;0.60;;;;;;;6.53;76.82;100342.39;103300;1277;95285;-65
2022/01/14 09:16:34;;;;;;;0.60;0.60;;;;;;;6.52;76.83;100340.45;103253;1277;138985;-63
2022/01/14 09:19:02;;;;;;;0.60;0.60;;;;;;;6.52;76.96;100341.87;103413;1278;109910;-64
2022/01/14 09:21:30;;;;;;;0.70;0.70;;;;;;;6.56;77.03;100337.41;103331;1277;97034;-64
2022/01/14 09:24:04;;;;;;;0.60;0.60;;;;;;;6.59;76.92;100339.15;103261;1277;138741;-64
2022/01/14 09:26:34;;;;;;;0.60;0.60;;;;;;;6.60;77.01;100342.14;104171;1277;109006;-65
2022/01/14 09:29:04;;;;;;;0.60;0.60;;;;;;;6.67;76.81;100339.41;103555;1277;138868;-65
2022/01/14 09:31:32;;;;;;;0.60;0.60;;;;;;;6.65;76.71;100343.67;103288;1277;95640;-65
2022/01/14 09:34:00;;;;;;;0.50;0.50;;;;;;;6.67;76.77;100339.94;103222;1277;96012;-63
2022/01/14 09:36:28;;;;;;;0.60;0.60;;;;;;;6.66;76.85;100342.42;106984;1277;137648;-63
2022/01/14 09:38:57;;;;;;;0.60;0.60;;;;;;;6.64;76.94;100341.20;103338;1277;110565;-64
2022/01/14 09:41:25;;;;;;;0.60;0.60;;;;;;;6.70;76.88;100342.39;103371;1277;138679;-65
2022/01/14 09:43:54;;;;;;;0.60;0.60;;;;;;;6.69;76.94;100340.98;103369;1278;95244;-64
2022/01/14 09:46:22;;;;;;;0.60;0.60;;;;;;;6.72;76.84;100332.83;103188;1277;138878;-64
2022/01/14 09:48:50;;;;;;;0.60;0.60;;;;;;;6.74;76.87;100332.63;103414;1277;109731;-64
2022/01/14 09:51:19;;;;;;;0.60;0.60;;;;;;;6.76;76.79;100331.38;103451;1277;95205;-66
2022/01/14 09:53:48;;;;;;;0.60;0.60;;;;;;;6.80;76.59;100329.91;103217;1278;139114;-67
2022/01/14 09:56:17;;;;;;;0.60;0.60;;;;;;;6.78;76.84;100329.58;103122;1277;108772;-65
2022/01/14 09:58:49;;;;;;;0.60;0.60;;;;;;;6.82;76.72;100326.02;103281;1277;139119;-64
2022/01/14 10:01:22;;;;;;;0.60;0.60;;;;;;;6.82;76.65;100325.31;104873;1277;95641;-65
2022/01/14 10:03:57;;;;;;;0.60;0.60;;;;;;;6.85;76.52;100317.14;103395;1277;95289;-65
2022/01/14 10:06:44;;;;;;;0.60;0.60;;;;;;;6.85;76.56;100314.67;103355;1278;138887;-64
2022/01/14 10:09:24;;;;;;;0.60;0.60;;;;;;;6.93;76.38;100304.87;103518;1277;108780;-67
2022/01/14 10:12:13;;;;;;;0.70;0.70;;;;;;;6.96;76.48;100293.89;103364;1277;138139;-66
2022/01/14 10:14:43;;;;;;;0.60;0.60;;;;;;;6.95;76.56;100294.97;103365;1277;95510;-65
2022/01/14 10:17:11;;;;;;;0.60;0.60;;;;;;;6.91;76.69;100289.55;103608;1277;138584;-66
2022/01/14 10:19:44;;;;;;;0.60;0.60;;;;;;;6.90;76.70;100285.50;103370;1278;109706;-64
2022/01/14 10:22:22;;;;;;;0.60;0.60;;;;;;;6.86;76.84;100280.79;103261;1277;139040;-67
2022/01/14 10:24:54;;;;;;;0.50;0.50;;;;;;;6.89;77.06;100274.92;103237;1278;97506;-65
2022/01/14 10:27:43;;;;;;;0.60;0.60;;;;;;;6.93;77.02;100272.92;103327;1277;110326;-66
2022/01/14 10:30:29;;;;;;;0.50;0.50;;;;;;;7.00;76.61;100268.94;103119;1277;139022;-65
2022/01/14 10:33:03;;;;;;;0.60;0.60;;;;;;;7.01;76.37;100259.58;103464;1277;95205;-64
2022/01/14 10:35:50;;;;;;;0.60;0.60;;;;;;;7.02;76.43;100259.91;103273;1277;138556;-66
2022/01/14 10:38:20;;;;;;;0.50;0.50;;;;;;;7.04;76.41;100259.17;103419;1277;109134;-64
2022/01/14 10:40:49;;;;;;;0.50;0.50;;;;;;;7.05;76.47;100257.58;103687;1277;139397;-65
2022/01/14 10:43:21;;;;;;;0.50;0.50;;;;;;;7.04;76.52;100255.48;103426;1278;95719;-65
2022/01/14 10:45:55;;;;;;;0.50;0.50;;;;;;;7.02;76.68;100253.56;103448;1277;95668;-64
2022/01/14 10:48:32;;;;;;;0.50;0.50;;;;;;;7.02;76.58;100246.67;104053;1277;138538;-63
2022/01/14 10:51:04;;;;;;;0.50;0.50;;;;;;;7.00;76.71;100256.41;103708;1277;109841;-66
2022/01/14 10:53:34;;;;;;;0.60;0.60;;;;;;;7.00;76.72;100264.71;103352;1277;138670;-67
2022/01/14 10:56:04;;;;;;;0.50;0.50;;;;;;;7.00;76.89;100262.77;103355;1278;95307;-64
2022/01/14 10:58:38;;;;;;;0.50;0.50;;;;;;;7.01;76.71;100255.17;103268;1277;139107;-66
2022/01/14 11:01:07;;;;;;;0.60;0.60;;;;;;;7.03;76.84;100250.55;104169;1278;109735;-66
2022/01/14 11:03:44;;;;;;;0.60;0.60;;;;;;;7.06;76.81;100257.75;103422;1277;95671;-65
2022/01/14 11:06:26;;;;;;;0.60;0.60;;;;;;;7.10;76.71;100254.52;103426;1277;138665;-66
2022/01/14 11:09:11;;;;;;;0.60;0.60;;;;;;;7.05;76.61;100246.45;103398;1277;108851;-68
2022/01/14 11:11:43;;;;;;;0.60;0.60;;;;;;;7.07;76.80;100239.91;103198;1277;139042;-65
2022/01/14 11:14:11;;;;;;;0.50;0.50;;;;;;;7.05;76.80;100243.10;103721;1277;95372;-64
2022/01/14 11:16:39;;;;;;;0.50;0.50;;;;;;;7.08;76.68;100240.23;103301;1277;138838;-65
2022/01/14 11:19:09;;;;;;;0.60;0.60;;;;;;;7.14;76.68;100232.20;103490;1277;107556;-65
2022/01/14 11:24:27;;;;;;;0.60;0.60;;;;;;;7.15;76.71;100228.64;103277;1277;138848;-66
2022/01/14 11:27:07;;;;;;;0.70;0.70;;;;;;;7.13;76.45;100225.50;104945;1277;95201;-66
2022/01/14 11:29:38;;;;;;;0.50;0.50;;;;;;;7.10;76.65;100228.55;103991;1277;139270;-64
2022/01/14 11:32:07;;;;;;;0.60;0.60;;;;;;;7.09;76.56;100227.52;103451;1277;110248;-65
2022/01/14 11:34:42;;;;;;;0.50;0.50;;;;;;;7.11;76.62;100227.66;103477;1277;139664;-66
2022/01/14 11:37:13;;;;;;;0.60;0.60;;;;;;;7.14;76.33;100227.08;103571;1277;96452;-65
2022/01/14 11:39:56;;;;;;;0.60;0.60;;;;;;;7.17;76.22;100225.45;103420;1277;108836;-64
2022/01/14 11:42:41;;;;;;;0.60;0.60;;;;;;;7.17;76.02;100224.04;103336;1277;138787;-65
2022/01/14 11:45:14;;;;;;;0.50;0.50;;;;;;;7.16;76.01;100221.76;103399;1278;95722;-63
2022/01/14 11:47:44;;;;;;;0.60;0.60;;;;;;;7.21;76.07;100212.14;103565;1277;138710;-65
2022/01/14 11:50:18;;;;;;;0.50;0.50;;;;;;;7.26;75.91;100214.90;103501;1277;108823;-65
2022/01/14 11:52:48;;;;;;;0.60;0.60;;;;;;;7.29;75.90;100209.36;103416;1277;139657;-66
2022/01/14 11:55:19;;;;;;;0.60;0.60;;;;;;;7.30;75.86;100211.48;103554;1277;98502;-66
2022/01/14 11:57:48;;;;;;;0.50;0.50;;;;;;;7.34;76.04;100219.53;103381;1277;96201;-66
2022/01/14 12:00:26;;;;;;;0.60;0.60;;;;;;;7.39;75.57;100217.17;103441;1277;138907;-65
2022/01/14 12:02:58;;;;;;;0.50;0.50;;;;;;;7.44;75.44;100219.37;103388;1277;108892;-65
2022/01/14 12:05:30;;;;;;;0.50;0.50;;;;;;;7.41;75.16;100222.42;103323;1275;138772;-65